Time;durP1;ratioP1;P1;durP2;ratioP2;P2;SDS_P1;SDS_P2;PMS_P1;PMS_P2;Temp;Humidity;BMP_temperature;BMP_pressure;BME280_temperature;BME280_humidity;BME280_pressure;Samples;Min_cycle;Max_cycle;Signal;HPM_P1;HPM_P2
2023/01/24 00:00:21;;;;;;;23.87;17.60;;;4.10;99.90;;;;;;5035454;28;20590;-82
2023/01/24 00:02:48;;;;;;;20.87;16.03;;;4.10;99.90;;;;;;5035607;28;20201;-81
2023/01/24 00:05:15;;;;;;;24.90;17.57;;;4.10;99.90;;;;;;5034773;28;20291;-82
2023/01/24 00:07:41;;;;;;;24.17;17.70;;;4.10;99.90;;;;;;5034895;28;20635;-81
2023/01/24 00:10:10;;;;;;;24.67;16.17;;;4.10;99.90;;;;;;5042853;28;20206;-83
2023/01/24 00:12:38;;;;;;;22.00;16.27;;;4.10;99.90;;;;;;5054904;28;20204;-81
2023/01/24 00:15:06;;;;;;;20.80;15.53;;;4.10;99.90;;;;;;5047880;28;20206;-80
2023/01/24 00:17:33;;;;;;;20.83;16.77;;;4.10;99.90;;;;;;5054720;28;20236;-88
2023/01/24 00:19:59;;;;;;;21.67;16.93;;;4.10;99.90;;;;;;5055855;28;20277;-80
2023/01/24 00:22:27;;;;;;;21.23;15.63;;;4.10;99.90;;;;;;5045358;28;20199;-87
2023/01/24 00:24:53;;;;;;;20.87;15.93;;;4.10;99.90;;;;;;5036538;28;20265;-84
2023/01/24 00:27:20;;;;;;;22.17;17.53;;;4.10;99.90;;;;;;5036445;28;20265;-88
2023/01/24 00:29:49;;;;;;;21.00;16.10;;;4.10;99.90;;;;;;5047657;28;20285;-85
2023/01/24 00:32:16;;;;;;;21.57;15.80;;;4.20;99.90;;;;;;5053756;28;20236;-90
2023/01/24 00:34:43;;;;;;;20.17;15.67;;;4.10;99.90;;;;;;5035914;28;20203;-81
2023/01/24 00:37:09;;;;;;;20.87;16.10;;;4.10;99.90;;;;;;5035421;28;20203;-84
2023/01/24 00:39:36;;;;;;;20.07;16.47;;;4.10;99.90;;;;;;5035308;28;20209;-87
2023/01/24 00:42:03;;;;;;;23.13;17.23;;;4.10;99.90;;;;;;5047073;28;20236;-84
2023/01/24 00:44:30;;;;;;;21.87;16.70;;;4.10;99.90;;;;;;5056266;28;20280;-88
2023/01/24 00:46:59;;;;;;;21.70;16.30;;;4.10;99.90;;;;;;5056208;28;20230;-86
2023/01/24 00:49:26;;;;;;;21.50;16.63;;;4.10;99.90;;;;;;5056221;28;20248;-84
2023/01/24 00:51:52;;;;;;;22.13;16.00;;;4.00;99.90;;;;;;5055896;28;20253;-86
2023/01/24 00:54:19;;;;;;;21.03;16.70;;;4.00;99.90;;;;;;5056065;28;20212;-85
2023/01/24 00:56:46;;;;;;;20.83;16.17;;;4.10;99.90;;;;;;5055753;28;20693;-88
2023/01/24 00:59:13;;;;;;;23.13;16.87;;;4.00;99.90;;;;;;5056123;28;20204;-85
2023/01/24 01:01:40;;;;;;;19.87;15.37;;;4.00;99.90;;;;;;5056014;28;20267;-89
2023/01/24 01:04:09;;;;;;;22.80;17.07;;;4.00;99.90;;;;;;5056021;28;20190;-88
2023/01/24 01:06:36;;;;;;;23.93;16.63;;;4.10;99.90;;;;;;5054657;28;20221;-88
2023/01/24 01:09:04;;;;;;;23.40;16.50;;;4.00;99.90;;;;;;5055811;28;20269;-89
2023/01/24 01:11:31;;;;;;;21.13;15.97;;;4.10;99.90;;;;;;5056010;28;20622;-85
2023/01/24 01:13:58;;;;;;;21.00;16.43;;;4.10;99.90;;;;;;5055861;28;20190;-88
2023/01/24 01:16:25;;;;;;;24.67;17.63;;;4.10;99.90;;;;;;5056297;28;20205;-89
2023/01/24 01:18:56;;;;;;;21.80;16.30;;;4.10;99.90;;;;;;5049383;28;20233;-82
2023/01/24 01:21:24;;;;;;;23.20;17.13;;;4.10;99.90;;;;;;5034185;28;20202;-85
2023/01/24 01:23:51;;;;;;;25.53;16.77;;;4.10;99.90;;;;;;5034352;28;20238;-84
2023/01/24 01:26:20;;;;;;;21.73;15.97;;;4.10;99.90;;;;;;5042767;28;20288;-89
2023/01/24 01:28:47;;;;;;;21.40;16.60;;;4.00;99.90;;;;;;5055219;28;20198;-89
2023/01/24 01:31:14;;;;;;;22.80;17.00;;;4.00;99.90;;;;;;5052892;28;20209;-88
2023/01/24 01:33:41;;;;;;;20.37;15.83;;;4.10;99.90;;;;;;5035829;28;20333;-86
2023/01/24 01:36:08;;;;;;;20.97;15.67;;;4.10;99.90;;;;;;5040043;28;20225;-89
2023/01/24 01:38:36;;;;;;;19.80;16.00;;;4.10;99.90;;;;;;5055196;28;20198;-87
2023/01/24 01:41:04;;;;;;;21.17;15.40;;;4.10;99.90;;;;;;5055253;28;20206;-88
2023/01/24 01:43:31;;;;;;;20.10;15.63;;;4.10;99.90;;;;;;5055106;28;20198;-88
2023/01/24 01:46:01;;;;;;;20.73;14.80;;;4.10;99.90;;;;;;5053696;28;20308;-87
2023/01/24 01:48:36;;;;;;;21.17;15.37;;;4.10;99.90;;;;;;5053598;28;20312;-88
2023/01/24 01:51:10;;;;;;;17.63;14.47;;;4.10;99.90;;;;;;5055180;28;20209;-86
2023/01/24 01:53:42;;;;;;;21.20;15.33;;;4.10;99.90;;;;;;5054685;28;20201;-87
2023/01/24 01:56:15;;;;;;;18.93;15.03;;;4.10;99.90;;;;;;5054881;28;20277;-84
2023/01/24 01:58:43;;;;;;;19.47;15.60;;;4.10;99.90;;;;;;5055106;28;20281;-85
2023/01/24 02:01:10;;;;;;;20.90;15.77;;;4.00;99.90;;;;;;5055064;28;20305;-89
2023/01/24 02:03:43;;;;;;;20.33;16.10;;;4.00;99.90;;;;;;5055117;28;20244;-88
2023/01/24 02:06:36;;;;;;;23.57;16.03;;;4.00;99.90;;;;;;5055052;28;20222;-87
2023/01/24 02:09:08;;;;;;;22.37;15.97;;;4.00;99.90;;;;;;5034973;28;20207;-87
2023/01/24 02:11:38;;;;;;;19.47;15.37;;;4.00;99.90;;;;;;5047986;28;20233;-86
2023/01/24 02:16:52;;;;;;;20.47;15.30;;;4.00;99.90;;;;;;5054851;28;20955;-88
2023/01/24 02:19:29;;;;;;;22.10;16.73;;;4.00;99.90;;;;;;5052067;28;20594;-89
2023/01/24 02:22:02;;;;;;;19.83;15.20;;;4.00;99.90;;;;;;5052695;28;20578;-88
2023/01/24 02:24:37;;;;;;;20.53;15.67;;;3.90;99.90;;;;;;5049367;28;20789;-79
2023/01/24 02:27:06;;;;;;;20.23;14.80;;;4.00;99.90;;;;;;5032631;28;20186;-79
2023/01/24 02:29:33;;;;;;;20.50;15.80;;;4.00;99.90;;;;;;5032340;28;20703;-81
2023/01/24 02:32:02;;;;;;;19.97;15.30;;;4.00;99.90;;;;;;5031553;28;20227;-79
2023/01/24 02:34:30;;;;;;;19.20;14.60;;;4.00;99.90;;;;;;5040093;28;20205;-79
2023/01/24 02:37:00;;;;;;;20.23;14.27;;;4.00;99.90;;;;;;5051951;28;20206;-79
2023/01/24 02:39:32;;;;;;;20.47;15.90;;;4.00;99.90;;;;;;5051688;28;20216;-80
2023/01/24 02:42:04;;;;;;;21.17;15.47;;;4.00;99.90;;;;;;5051924;28;20230;-79
2023/01/24 02:44:38;;;;;;;20.87;15.83;;;4.00;99.90;;;;;;5033789;28;20194;-78
2023/01/24 02:47:05;;;;;;;20.37;15.70;;;4.00;99.90;;;;;;5031993;28;20305;-79
2023/01/24 02:49:32;;;;;;;18.83;14.63;;;3.90;99.90;;;;;;5031625;28;20325;-81
2023/01/24 02:54:43;;;;;;;18.87;14.80;;;3.90;99.90;;;;;;5051896;28;20193;-79
2023/01/24 02:59:55;;;;;;;21.03;16.17;;;3.90;99.90;;;;;;5051408;28;20181;-79
2023/01/24 03:02:22;;;;;;;20.37;15.43;;;4.00;99.90;;;;;;5051080;28;20232;-80
2023/01/24 03:04:49;;;;;;;18.70;14.97;;;3.90;99.90;;;;;;5038263;28;20234;-80
2023/01/24 03:07:16;;;;;;;21.30;14.90;;;3.90;99.90;;;;;;5030842;28;20222;-80
2023/01/24 03:09:47;;;;;;;20.77;15.50;;;4.00;99.90;;;;;;5031535;28;20285;-80
2023/01/24 03:34:32;;;;;;;19.53;14.83;;;4.00;99.90;;;;;;5042742;28;20204;-89
2023/01/24 03:36:59;;;;;;;19.37;14.00;;;3.90;99.90;;;;;;5056491;28;20190;-90
2023/01/24 03:42:10;;;;;;;17.17;13.67;;;3.90;99.90;;;;;;5055712;28;20200;-84
2023/01/24 03:44:37;;;;;;;17.63;13.17;;;3.90;99.90;;;;;;5046067;28;20206;-82
2023/01/24 03:47:06;;;;;;;18.67;14.27;;;3.90;99.90;;;;;;5036951;28;20249;-84
2023/01/24 03:52:27;;;;;;;18.33;13.27;;;3.90;99.90;;;;;;5056893;28;20213;-85
2023/01/24 03:54:54;;;;;;;20.30;13.43;;;4.00;99.90;;;;;;5057237;28;20186;-87
2023/01/24 03:57:21;;;;;;;18.90;13.60;;;3.90;99.90;;;;;;5055033;28;20413;-80
2023/01/24 03:59:48;;;;;;;15.67;13.13;;;4.00;99.90;;;;;;5055289;28;20280;-79
2023/01/24 04:02:17;;;;;;;19.60;13.70;;;3.90;99.90;;;;;;5054614;28;20198;-81
2023/01/24 04:07:30;;;;;;;21.13;14.63;;;4.00;99.90;;;;;;5038820;28;20209;-87
2023/01/24 04:09:57;;;;;;;18.50;14.67;;;3.90;99.90;;;;;;5036600;28;20233;-82
2023/01/24 04:12:24;;;;;;;18.33;12.90;;;3.90;99.90;;;;;;5051732;28;20253;-85
2023/01/24 04:14:51;;;;;;;18.40;13.40;;;4.00;99.90;;;;;;5055209;28;20632;-85
2023/01/24 04:17:20;;;;;;;19.00;13.70;;;3.90;99.90;;;;;;5044049;28;20202;-79
2023/01/24 04:19:47;;;;;;;20.37;14.60;;;3.90;99.90;;;;;;5034534;28;20281;-82
2023/01/24 04:22:16;;;;;;;19.23;14.37;;;3.90;99.90;;;;;;5035013;28;20226;-80
2023/01/24 04:24:43;;;;;;;18.67;14.13;;;3.90;99.90;;;;;;5041885;28;20206;-82
2023/01/24 04:27:10;;;;;;;18.10;13.97;;;3.90;99.90;;;;;;5055395;28;20321;-82
2023/01/24 04:29:37;;;;;;;19.97;15.17;;;3.90;99.90;;;;;;5054567;28;20198;-81
2023/01/24 04:32:04;;;;;;;19.17;14.03;;;3.90;99.90;;;;;;5040329;28;20222;-81
2023/01/24 04:34:33;;;;;;;20.27;15.53;;;3.80;99.90;;;;;;5034806;28;20245;-81
2023/01/24 04:37:00;;;;;;;19.33;15.20;;;3.80;99.90;;;;;;5034821;28;20318;-79
2023/01/24 04:39:27;;;;;;;19.43;14.60;;;3.80;99.90;;;;;;5035115;28;20226;-82
2023/01/24 04:41:53;;;;;;;19.00;14.30;;;3.80;99.90;;;;;;5052646;28;20198;-88
2023/01/24 04:44:20;;;;;;;20.43;15.10;;;3.80;99.90;;;;;;5054355;28;20301;-84
2023/01/24 04:46:47;;;;;;;21.13;15.87;;;3.80;99.90;;;;;;5054405;28;20745;-86
2023/01/24 04:49:14;;;;;;;19.77;15.03;;;3.70;99.90;;;;;;5054559;28;20238;-81
2023/01/24 04:51:42;;;;;;;19.43;14.83;;;3.80;99.90;;;;;;5056274;28;20202;-83
2023/01/24 04:54:10;;;;;;;20.07;15.67;;;3.70;99.90;;;;;;5057033;28;20205;-90
2023/01/24 04:56:36;;;;;;;20.13;14.77;;;3.70;99.90;;;;;;5059420;28;20205;-90
2023/01/24 04:59:04;;;;;;;20.27;13.90;;;3.70;99.90;;;;;;5057156;28;20323;-90
2023/01/24 05:01:31;;;;;;;24.10;16.47;;;3.80;99.90;;;;;;5055193;28;20209;-84
2023/01/24 05:03:59;;;;;;;18.53;14.50;;;3.80;99.90;;;;;;5055994;28;20193;-91
2023/01/24 05:06:26;;;;;;;25.90;16.87;;;3.80;99.90;;;;;;5053531;28;20594;-92
2023/01/24 05:08:55;;;;;;;20.27;15.67;;;3.80;99.90;;;;;;5035826;28;20221;-91
2023/01/24 05:11:23;;;;;;;18.60;14.60;;;3.80;99.90;;;;;;5047633;28;20216;-92
2023/01/24 05:13:50;;;;;;;21.17;15.80;;;3.80;99.90;;;;;;5055410;28;20229;-88
2023/01/24 05:16:17;;;;;;;18.87;14.53;;;3.80;99.90;;;;;;5055952;28;20224;-89
2023/01/24 05:18:45;;;;;;;21.00;15.57;;;3.80;99.90;;;;;;5055627;28;20198;-91
2023/01/24 05:21:13;;;;;;;22.63;15.73;;;3.80;99.90;;;;;;5055513;28;20204;-90
2023/01/24 05:23:41;;;;;;;21.23;15.00;;;3.80;99.90;;;;;;5055653;28;20283;-90
2023/01/24 05:26:10;;;;;;;21.30;14.97;;;3.80;99.90;;;;;;5055396;28;20206;-91
2023/01/24 05:28:37;;;;;;;18.20;13.77;;;3.80;99.90;;;;;;5055589;28;20217;-87
2023/01/24 05:31:07;;;;;;;21.10;15.80;;;3.80;99.90;;;;;;5054491;28;20212;-82
2023/01/24 05:33:34;;;;;;;20.33;14.87;;;3.80;99.90;;;;;;5052910;28;20311;-82
2023/01/24 05:36:01;;;;;;;20.60;15.37;;;3.80;99.90;;;;;;5043265;28;20289;-80
2023/01/24 05:38:28;;;;;;;18.93;14.30;;;3.80;99.90;;;;;;5034232;28;20321;-88
2023/01/24 05:41:00;;;;;;;20.30;14.97;;;3.80;99.90;;;;;;5040648;28;20198;-87
2023/01/24 05:43:28;;;;;;;20.30;14.87;;;3.80;99.90;;;;;;5054732;28;20202;-81
2023/01/24 05:45:58;;;;;;;25.73;16.83;;;3.80;99.90;;;;;;5054223;28;20221;-84
2023/01/24 05:48:25;;;;;;;20.97;16.13;;;3.80;99.90;;;;;;5054212;28;20529;-81
2023/01/24 05:50:57;;;;;;;21.07;15.50;;;3.80;99.90;;;;;;5053801;28;20568;-89
2023/01/24 05:53:24;;;;;;;20.93;16.03;;;3.80;99.90;;;;;;5052727;28;20233;-88
2023/01/24 05:55:56;;;;;;;20.30;14.93;;;3.70;99.90;;;;;;5052957;28;20206;-84
2023/01/24 05:58:23;;;;;;;19.73;15.27;;;3.70;99.90;;;;;;5057006;28;20281;-80
2023/01/24 06:00:51;;;;;;;19.63;15.40;;;3.70;99.90;;;;;;5055394;28;20190;-81
2023/01/24 06:03:18;;;;;;;20.03;14.93;;;3.70;99.90;;;;;;5051796;28;20225;-86
2023/01/24 06:05:49;;;;;;;21.60;16.37;;;3.70;99.90;;;;;;5052947;28;20209;-80
2023/01/24 06:08:16;;;;;;;20.97;15.20;;;3.80;99.90;;;;;;5052258;28;20228;-80
2023/01/24 06:10:44;;;;;;;18.70;13.83;;;3.80;99.90;;;;;;5051950;28;20257;-83
2023/01/24 06:13:11;;;;;;;19.20;14.60;;;3.80;99.90;;;;;;5052384;28;20236;-81
2023/01/24 06:15:39;;;;;;;19.93;15.30;;;3.80;99.90;;;;;;5032426;28;20274;-81
2023/01/24 06:18:12;;;;;;;21.50;15.20;;;3.80;99.90;;;;;;5032104;28;20201;-83
2023/01/24 06:20:39;;;;;;;18.77;14.53;;;3.80;99.90;;;;;;5034241;28;20253;-79
2023/01/24 06:23:07;;;;;;;19.13;14.90;;;3.70;99.90;;;;;;5039278;28;20186;-81
2023/01/24 06:25:35;;;;;;;18.53;14.77;;;3.70;99.90;;;;;;5031702;28;20209;-81
2023/01/24 06:28:03;;;;;;;18.73;15.37;;;3.70;99.90;;;;;;5032008;28;20194;-82
2023/01/24 06:30:30;;;;;;;19.40;14.80;;;3.70;99.90;;;;;;5031557;28;20688;-81
2023/01/24 06:33:16;;;;;;;24.47;16.53;;;3.70;99.90;;;;;;5032939;28;20344;-88
2023/01/24 06:35:51;;;;;;;23.67;17.13;;;3.70;99.90;;;;;;5043568;28;20296;-82
2023/01/24 06:38:21;;;;;;;22.37;17.00;;;3.70;99.90;;;;;;5053217;28;20196;-87
2023/01/24 06:40:51;;;;;;;24.13;18.47;;;3.70;99.90;;;;;;5052005;28;20284;-80
2023/01/24 06:43:19;;;;;;;23.80;17.77;;;3.60;99.90;;;;;;5051806;28;20204;-80
2023/01/24 06:45:46;;;;;;;22.27;17.00;;;3.60;99.90;;;;;;5037710;28;20230;-81
2023/01/24 06:48:16;;;;;;;22.67;16.17;;;3.60;99.90;;;;;;5031754;28;20561;-82
2023/01/24 06:50:42;;;;;;;23.40;16.90;;;3.60;99.90;;;;;;5041819;28;20204;-83
2023/01/24 06:53:09;;;;;;;21.07;16.37;;;3.60;99.90;;;;;;5053926;28;20225;-89
2023/01/24 06:55:36;;;;;;;22.30;17.03;;;3.50;99.90;;;;;;5054604;28;20300;-88
2023/01/24 06:58:04;;;;;;;22.50;17.00;;;3.60;99.90;;;;;;5052596;28;20641;-91
2023/01/24 07:00:32;;;;;;;23.27;17.50;;;3.60;99.90;;;;;;5054070;28;20214;-87
2023/01/24 07:03:00;;;;;;;23.50;16.83;;;3.60;99.90;;;;;;5053552;28;20194;-90
2023/01/24 07:05:28;;;;;;;23.57;17.10;;;3.60;99.90;;;;;;5052587;28;20516;-87
2023/01/24 07:07:55;;;;;;;22.33;16.13;;;3.60;99.90;;;;;;5053838;28;20285;-90
2023/01/24 07:10:22;;;;;;;22.23;16.83;;;3.60;99.90;;;;;;5053864;28;20206;-87
2023/01/24 07:12:50;;;;;;;22.77;16.67;;;3.60;99.90;;;;;;5053474;28;20217;-86
2023/01/24 07:15:17;;;;;;;23.73;17.50;;;3.60;99.90;;;;;;5053810;28;20201;-90
2023/01/24 07:17:45;;;;;;;21.40;16.60;;;3.60;99.90;;;;;;5033940;28;20305;-85
2023/01/24 07:20:13;;;;;;;20.80;15.57;;;3.50;99.90;;;;;;5040669;28;20202;-89
2023/01/24 07:22:44;;;;;;;22.13;16.73;;;3.50;99.90;;;;;;5053964;28;20272;-84
2023/01/24 07:25:15;;;;;;;22.23;16.77;;;3.60;99.90;;;;;;5053408;28;20204;-86
2023/01/24 07:27:43;;;;;;;24.37;18.03;;;3.60;99.90;;;;;;5053698;28;20224;-87
2023/01/24 07:30:12;;;;;;;22.60;17.87;;;3.60;99.90;;;;;;5044085;28;20194;-91
2023/01/24 07:32:39;;;;;;;26.73;18.53;;;3.60;99.90;;;;;;5033489;28;20305;-88
2023/01/24 07:35:08;;;;;;;25.97;17.57;;;3.60;99.90;;;;;;5051943;28;20209;-90
2023/01/24 07:37:35;;;;;;;25.33;18.13;;;3.50;99.90;;;;;;5053409;28;20505;-81
2023/01/24 07:40:04;;;;;;;23.37;17.37;;;3.60;99.90;;;;;;5050839;28;20202;-89
2023/01/24 07:42:31;;;;;;;22.20;16.57;;;3.60;99.90;;;;;;5051835;28;20276;-85
2023/01/24 07:44:59;;;;;;;22.97;17.80;;;3.60;99.90;;;;;;5051395;28;20208;-84
2023/01/24 07:47:27;;;;;;;24.37;17.37;;;3.60;99.90;;;;;;5035403;28;20296;-81
2023/01/24 07:49:54;;;;;;;24.03;17.77;;;3.50;99.90;;;;;;5031441;28;20349;-82
2023/01/24 07:52:21;;;;;;;26.47;17.37;;;3.60;99.90;;;;;;5031877;28;20214;-89
2023/01/24 07:54:48;;;;;;;25.57;17.80;;;3.50;99.90;;;;;;5034097;28;20571;-92
2023/01/24 07:57:16;;;;;;;23.87;17.27;;;3.50;99.90;;;;;;5033565;28;20229;-89
2023/01/24 07:59:43;;;;;;;23.47;17.47;;;3.60;99.90;;;;;;5033861;28;20278;-91
2023/01/24 08:02:11;;;;;;;23.77;17.47;;;3.60;99.90;;;;;;5033220;28;20207;-91
2023/01/24 08:04:38;;;;;;;24.13;17.30;;;3.60;99.90;;;;;;5052162;28;20655;-89
2023/01/24 08:07:17;;;;;;;23.63;16.73;;;3.50;99.90;;;;;;5053133;28;20200;-88
2023/01/24 08:09:45;;;;;;;24.37;16.67;;;3.50;99.90;;;;;;5052275;28;20202;-89
2023/01/24 08:12:12;;;;;;;22.17;16.60;;;3.60;99.90;;;;;;5039340;28;20205;-91
2023/01/24 08:15:20;;;;;;;23.70;16.67;;;3.60;99.90;;;;;;5033542;28;20234;-92
2023/01/24 08:17:48;;;;;;;23.97;17.43;;;3.60;99.90;;;;;;5060564;28;20213;-91
2023/01/24 08:20:16;;;;;;;24.30;16.87;;;3.60;99.90;;;;;;5056629;28;20202;-90
2023/01/24 08:22:43;;;;;;;24.27;17.10;;;3.50;99.90;;;;;;5056513;28;20197;-84
2023/01/24 08:25:10;;;;;;;23.80;16.03;;;3.50;99.90;;;;;;5057607;28;20592;-85
2023/01/24 08:27:41;;;;;;;21.23;16.07;;;3.50;99.90;;;;;;5059077;28;20290;-87
2023/01/24 08:30:10;;;;;;;21.50;16.53;;;3.50;99.90;;;;;;5054376;28;20776;-84
2023/01/24 08:32:37;;;;;;;26.37;18.00;;;3.40;99.90;;;;;;5055138;28;20209;-89
2023/01/24 08:35:06;;;;;;;26.07;17.17;;;3.40;99.90;;;;;;5036676;28;20662;-85
2023/01/24 08:37:33;;;;;;;25.33;18.10;;;3.40;99.90;;;;;;5033827;28;20305;-79
2023/01/24 08:40:00;;;;;;;22.27;17.43;;;3.40;99.90;;;;;;5033975;28;20635;-79
2023/01/24 08:42:27;;;;;;;28.47;18.00;;;3.50;99.90;;;;;;5039112;28;20197;-79
2023/01/24 08:44:54;;;;;;;23.73;17.03;;;3.50;99.90;;;;;;5053875;28;20630;-81
2023/01/24 08:47:21;;;;;;;27.77;19.00;;;3.50;99.90;;;;;;5052608;28;20288;-87
2023/01/24 08:49:48;;;;;;;25.13;17.87;;;3.50;99.90;;;;;;5053893;28;20243;-81
2023/01/24 08:52:17;;;;;;;21.87;17.03;;;3.50;99.90;;;;;;5049341;28;20310;-82
2023/01/24 08:54:44;;;;;;;23.40;17.20;;;3.50;99.90;;;;;;5034710;28;20214;-82
2023/01/24 08:57:11;;;;;;;25.53;18.07;;;3.50;99.90;;;;;;5039966;28;20300;-82
2023/01/24 08:59:38;;;;;;;25.47;17.33;;;3.50;99.90;;;;;;5042389;28;20191;-81
2023/01/24 09:02:05;;;;;;;24.47;17.80;;;3.60;99.90;;;;;;5043064;28;20237;-83
2023/01/24 09:04:32;;;;;;;27.33;18.10;;;3.60;99.90;;;;;;5044798;28;20213;-80
2023/01/24 09:06:59;;;;;;;23.53;16.50;;;3.70;99.90;;;;;;5040435;28;20234;-81
2023/01/24 09:09:27;;;;;;;24.47;17.73;;;3.60;99.90;;;;;;5035884;28;20198;-83
2023/01/24 09:11:54;;;;;;;23.97;16.60;;;3.60;99.90;;;;;;5047657;28;20282;-86
2023/01/24 09:14:21;;;;;;;24.63;17.10;;;3.60;99.90;;;;;;5034897;28;20226;-80
2023/01/24 09:16:48;;;;;;;24.50;17.00;;;3.60;99.90;;;;;;5034209;28;20194;-81
2023/01/24 09:19:15;;;;;;;23.90;16.43;;;3.60;99.90;;;;;;5033546;28;20205;-80
2023/01/24 09:21:43;;;;;;;25.77;16.93;;;3.60;99.90;;;;;;5033011;28;20291;-80
2023/01/24 09:24:10;;;;;;;23.03;16.57;;;3.60;99.90;;;;;;5032911;28;20714;-81
2023/01/24 09:26:39;;;;;;;22.20;15.80;;;3.60;99.90;;;;;;5032469;28;20289;-78
2023/01/24 09:29:06;;;;;;;22.97;16.97;;;3.60;99.90;;;;;;5048290;28;20267;-78
2023/01/24 09:31:33;;;;;;;25.33;16.87;;;3.60;99.90;;;;;;5036059;28;20213;-82
2023/01/24 09:34:00;;;;;;;22.73;17.10;;;3.70;99.90;;;;;;5033410;28;20618;-86
2023/01/24 09:36:27;;;;;;;21.90;15.93;;;3.70;99.90;;;;;;5036103;28;20230;-86
2023/01/24 09:38:54;;;;;;;24.90;16.77;;;3.70;99.90;;;;;;5053719;28;20190;-79
2023/01/24 09:41:31;;;;;;;22.33;16.00;;;3.70;99.90;;;;;;5047374;28;20290;-78
2023/01/24 09:44:01;;;;;;;21.47;14.70;;;3.60;99.90;;;;;;5032872;28;20190;-79
2023/01/24 09:46:33;;;;;;;21.07;15.17;;;3.50;99.90;;;;;;5032781;28;20626;-78
2023/01/24 09:49:06;;;;;;;20.70;15.10;;;3.50;99.90;;;;;;5030999;28;20227;-78
2023/01/24 09:51:38;;;;;;;21.30;14.43;;;3.50;99.90;;;;;;5031719;28;20195;-79
2023/01/24 09:54:06;;;;;;;22.70;15.77;;;3.50;99.90;;;;;;5031065;28;20214;-78
2023/01/24 09:56:37;;;;;;;21.03;15.20;;;3.50;99.90;;;;;;5032054;28;20202;-80
2023/01/24 09:59:14;;;;;;;21.90;16.03;;;3.60;99.90;;;;;;5031726;28;20201;-79
2023/01/24 10:01:41;;;;;;;20.33;16.07;;;3.60;99.90;;;;;;5031495;28;20231;-81
2023/01/24 10:04:19;;;;;;;21.43;14.97;;;3.50;99.90;;;;;;5032629;28;20583;-78
2023/01/24 10:07:08;;;;;;;21.37;14.97;;;3.60;99.90;;;;;;5049053;28;20190;-78
2023/01/24 10:09:48;;;;;;;19.60;14.90;;;3.60;99.90;;;;;;5049247;28;20298;-78
2023/01/24 10:12:28;;;;;;;20.77;15.53;;;3.70;99.90;;;;;;5051985;28;20201;-79
2023/01/24 10:15:13;;;;;;;20.00;15.17;;;3.70;99.90;;;;;;5050703;28;20552;-79
2023/01/24 10:17:53;;;;;;;19.87;15.37;;;3.70;99.90;;;;;;5052289;28;20585;-78
2023/01/24 10:20:48;;;;;;;21.47;14.70;;;3.70;99.90;;;;;;5037868;28;20498;-80
2023/01/24 10:23:17;;;;;;;17.63;13.73;;;3.80;99.90;;;;;;5031698;28;20202;-80
2023/01/24 10:25:58;;;;;;;18.53;14.37;;;3.80;99.90;;;;;;5031976;28;20289;-79
2023/01/24 10:28:28;;;;;;;18.13;13.17;;;3.80;99.90;;;;;;5032163;28;20252;-78
2023/01/24 10:31:06;;;;;;;19.37;14.33;;;3.70;99.90;;;;;;5032034;28;20198;-79
2023/01/24 10:33:38;;;;;;;18.93;14.23;;;3.70;99.90;;;;;;5032222;28;20223;-82
2023/01/24 10:36:12;;;;;;;18.73;14.50;;;3.60;99.90;;;;;;5037427;28;20200;-78
2023/01/24 10:38:39;;;;;;;18.23;13.87;;;3.60;99.90;;;;;;5052150;28;20190;-79
2023/01/24 10:41:19;;;;;;;21.37;15.27;;;3.70;99.90;;;;;;5051453;28;20284;-84
2023/01/24 10:43:50;;;;;;;19.10;14.27;;;3.70;99.90;;;;;;5051732;28;20194;-80
2023/01/24 10:46:44;;;;;;;18.90;14.17;;;3.70;99.90;;;;;;5051937;28;20290;-78
2023/01/24 10:49:19;;;;;;;19.90;14.63;;;3.70;99.90;;;;;;5045674;28;20309;-81
2023/01/24 10:52:08;;;;;;;18.37;13.90;;;3.80;99.90;;;;;;5031462;28;20313;-83
2023/01/24 10:54:47;;;;;;;19.20;14.57;;;3.80;99.90;;;;;;5033083;28;20218;-87
2023/01/24 10:57:36;;;;;;;19.90;15.63;;;3.90;99.90;;;;;;5033539;28;20206;-89
2023/01/24 11:00:19;;;;;;;19.47;14.93;;;3.90;99.90;;;;;;5051373;28;20241;-88
2023/01/24 11:02:51;;;;;;;17.57;14.23;;;3.90;99.90;;;;;;5045050;28;20216;-85
2023/01/24 11:05:19;;;;;;;19.70;14.60;;;3.90;99.90;;;;;;5051020;28;20201;-84
2023/01/24 11:07:48;;;;;;;16.90;13.57;;;3.90;99.90;;;;;;5042258;28;20208;-80
2023/01/24 11:10:24;;;;;;;18.57;15.13;;;3.90;99.90;;;;;;5040872;28;20206;-88
2023/01/24 11:12:54;;;;;;;16.70;13.83;;;3.80;99.90;;;;;;5058100;28;20233;-83
2023/01/24 11:15:27;;;;;;;17.33;14.13;;;3.80;99.90;;;;;;5033497;28;20248;-82
2023/01/24 11:17:58;;;;;;;17.37;14.73;;;3.80;99.90;;;;;;5034900;28;20209;-87
2023/01/24 11:20:33;;;;;;;18.27;14.80;;;3.80;99.90;;;;;;5036139;28;20842;-82
2023/01/24 11:23:06;;;;;;;19.17;14.00;;;3.80;99.90;;;;;;5014621;28;20212;-80
2023/01/24 11:25:33;;;;;;;14.47;11.30;;;3.80;99.90;;;;;;5032761;28;20540;-87
2023/01/24 11:28:00;;;;;;;15.20;11.50;;;3.80;99.90;;;;;;5033738;28;20241;-84
2023/01/24 11:30:34;;;;;;;15.63;11.93;;;3.70;99.90;;;;;;5046655;28;20232;-86
2023/01/24 11:33:29;;;;;;;17.37;13.20;;;3.80;99.90;;;;;;5053335;28;20694;-81
2023/01/24 11:36:02;;;;;;;16.57;13.30;;;3.70;99.90;;;;;;5051491;28;20305;-81
2023/01/24 11:38:35;;;;;;;17.27;13.60;;;3.60;99.90;;;;;;5052559;28;20546;-85
2023/01/24 11:41:11;;;;;;;17.07;13.50;;;3.60;99.90;;;;;;5051636;28;20811;-80
2023/01/24 11:43:54;;;;;;;17.53;13.53;;;3.60;99.90;;;;;;5052263;28;20218;-86
2023/01/24 11:46:34;;;;;;;17.33;12.70;;;3.60;99.90;;;;;;5052291;28;20291;-80
2023/01/24 11:49:19;;;;;;;16.70;13.90;;;3.50;99.90;;;;;;5052064;28;20226;-86
2023/01/24 11:51:55;;;;;;;17.40;12.80;;;3.60;99.90;;;;;;5051067;28;20340;-80
2023/01/24 11:54:38;;;;;;;15.40;12.17;;;3.60;99.90;;;;;;5037377;28;20583;-81
2023/01/24 11:57:19;;;;;;;19.40;15.30;;;3.70;99.90;;;;;;5047412;28;20285;-80
2023/01/24 12:00:01;;;;;;;18.23;14.17;;;3.80;99.90;;;;;;5037503;28;20205;-79
2023/01/24 12:02:41;;;;;;;20.20;14.70;;;3.90;99.90;;;;;;5033666;28;20191;-82
2023/01/24 12:05:37;;;;;;;19.20;14.37;;;3.90;99.90;;;;;;5045085;28;20663;-83
2023/01/24 12:08:27;;;;;;;17.83;13.67;;;3.90;99.90;;;;;;5053412;28;20285;-84
2023/01/24 12:11:02;;;;;;;19.47;13.93;;;3.90;99.90;;;;;;5034973;28;20203;-80
2023/01/24 12:13:36;;;;;;;18.03;14.30;;;3.90;99.90;;;;;;5035744;28;20209;-79
2023/01/24 12:16:15;;;;;;;18.23;13.40;;;3.90;99.90;;;;;;5033900;28;20231;-79
2023/01/24 12:18:57;;;;;;;18.63;13.93;;;3.90;99.90;;;;;;5035476;28;20214;-84
2023/01/24 12:21:26;;;;;;;15.67;13.07;;;3.90;99.90;;;;;;5033280;28;20194;-79
2023/01/24 12:23:56;;;;;;;17.90;14.33;;;4.00;99.90;;;;;;5034244;28;20206;-87
2023/01/24 12:26:26;;;;;;;17.13;14.13;;;3.90;99.90;;;;;;5034684;28;20316;-81
2023/01/24 12:29:01;;;;;;;16.50;13.10;;;3.90;99.90;;;;;;5032896;28;20298;-83
2023/01/24 12:31:40;;;;;;;21.17;16.53;;;3.80;99.90;;;;;;5035745;28;20230;-84
2023/01/24 12:34:16;;;;;;;17.10;13.57;;;3.80;99.90;;;;;;5035229;28;20260;-80
2023/01/24 12:36:49;;;;;;;16.57;13.47;;;3.80;99.90;;;;;;5060536;28;20280;-84
2023/01/24 12:39:21;;;;;;;16.97;12.97;;;3.70;99.90;;;;;;5055985;28;20219;-85
2023/01/24 12:41:56;;;;;;;17.23;13.80;;;3.80;99.90;;;;;;5055734;28;20218;-87
2023/01/24 12:44:31;;;;;;;18.27;14.47;;;3.80;99.90;;;;;;5053911;28;20844;-82
2023/01/24 12:47:20;;;;;;;17.70;13.93;;;3.90;99.90;;;;;;5055802;28;20787;-83
2023/01/24 12:50:01;;;;;;;19.67;14.73;;;3.90;99.90;;;;;;5045906;28;20237;-80
2023/01/24 12:52:39;;;;;;;18.47;14.73;;;3.90;99.90;;;;;;5043638;28;20272;-85
2023/01/24 12:55:13;;;;;;;16.77;13.97;;;4.00;99.90;;;;;;5035823;28;20790;-80
2023/01/24 12:57:44;;;;;;;17.63;14.43;;;4.00;99.90;;;;;;5033852;28;20217;-79
2023/01/24 13:00:17;;;;;;;19.07;15.73;;;4.00;99.90;;;;;;5035753;28;20564;-79
2023/01/24 13:03:32;;;;;;;19.23;15.90;;;4.10;99.90;;;;;;5034094;28;20495;-83
2023/01/24 13:06:08;;;;;;;18.37;15.20;;;4.00;99.90;;;;;;5031392;28;20595;-78
2023/01/24 13:08:49;;;;;;;19.83;15.10;;;4.00;99.90;;;;;;5053471;28;20229;-82
2023/01/24 13:11:20;;;;;;;20.53;16.03;;;4.00;99.90;;;;;;5054034;28;20293;-83
2023/01/24 13:13:58;;;;;;;20.83;16.57;;;4.00;99.90;;;;;;5045569;28;20321;-80
2023/01/24 13:16:52;;;;;;;19.97;15.70;;;4.00;99.90;;;;;;5034363;28;20210;-86
2023/01/24 13:19:31;;;;;;;18.70;14.90;;;3.90;99.90;;;;;;5039774;28;20232;-79
2023/01/24 13:22:07;;;;;;;18.93;14.97;;;3.90;99.90;;;;;;5055410;28;20558;-85
2023/01/24 13:24:55;;;;;;;19.97;15.67;;;3.90;99.90;;;;;;5035960;28;20198;-88
2023/01/24 13:27:36;;;;;;;20.77;14.77;;;3.90;99.90;;;;;;5036616;28;20203;-87
2023/01/24 13:30:30;;;;;;;19.73;16.37;;;3.90;99.90;;;;;;5036691;28;20205;-85
2023/01/24 13:33:02;;;;;;;19.07;15.13;;;3.80;99.90;;;;;;5054734;28;20208;-82